createdAt,value
2016-12-14T00:00:29.467Z,0
2016-12-14T00:01:40.513Z,0
2016-12-14T00:02:51.232Z,0
2016-12-14T00:04:02.263Z,0
2016-12-14T00:05:12.985Z,0
2016-12-14T00:06:23.726Z,0
2016-12-14T00:07:34.440Z,0
2016-12-14T00:08:45.193Z,0
2016-12-14T00:09:55.914Z,0
2016-12-14T00:11:06.635Z,0
2016-12-14T00:12:17.333Z,0
2016-12-14T00:13:28.074Z,0
2016-12-14T00:14:38.799Z,0
2016-12-14T00:15:49.541Z,0
2016-12-14T00:17:00.294Z,0
2016-12-14T00:18:11.036Z,0
2016-12-14T00:19:21.761Z,0
2016-12-14T00:20:32.500Z,0
2016-12-14T00:21:43.226Z,0
2016-12-14T00:22:53.945Z,0
2016-12-14T00:24:04.684Z,0
2016-12-14T00:25:15.417Z,0
2016-12-14T00:26:26.158Z,0
2016-12-14T00:27:36.879Z,0
2016-12-14T00:28:47.625Z,0
2016-12-14T00:29:58.363Z,0
2016-12-14T00:31:09.097Z,0
2016-12-14T00:32:19.815Z,0
2016-12-14T00:33:30.542Z,0
2016-12-14T00:34:41.265Z,0
2016-12-14T00:35:52.033Z,0
2016-12-14T00:37:02.751Z,0
2016-12-14T00:38:13.493Z,0
2016-12-14T00:39:24.236Z,0
2016-12-14T00:40:34.966Z,0
2016-12-14T00:41:45.724Z,0
2016-12-14T00:42:56.456Z,0
2016-12-14T00:44:07.178Z,0
2016-12-14T00:45:17.913Z,0
2016-12-14T00:46:28.671Z,0
2016-12-14T00:47:39.411Z,0
2016-12-14T00:48:50.136Z,0
2016-12-14T00:50:01.187Z,0
2016-12-14T00:51:11.947Z,0
2016-12-14T00:52:22.668Z,0
2016-12-14T00:53:33.445Z,0
2016-12-14T00:54:44.209Z,0
2016-12-14T00:55:54.926Z,0
2016-12-14T00:57:05.680Z,0
2016-12-14T00:58:16.422Z,0
2016-12-14T00:59:27.152Z,0
2016-12-14T01:00:37.940Z,0
2016-12-14T01:01:48.666Z,0
2016-12-14T01:02:59.415Z,0
2016-12-14T01:04:10.161Z,0
2016-12-14T01:05:20.881Z,0
2016-12-14T01:06:31.628Z,0
2016-12-14T01:07:42.373Z,0
2016-12-14T01:08:53.116Z,0
2016-12-14T01:10:03.865Z,0
2016-12-14T01:11:14.904Z,0
2016-12-14T01:12:25.604Z,0
2016-12-14T01:13:36.353Z,0
2016-12-14T01:14:47.113Z,0
2016-12-14T01:15:57.862Z,0
2016-12-14T01:17:08.611Z,0
2016-12-14T01:18:19.329Z,0
2016-12-14T01:19:30.150Z,0
2016-12-14T01:20:40.896Z,0
2016-12-14T01:21:51.923Z,0
2016-12-14T01:23:02.633Z,0
2016-12-14T01:24:13.388Z,0
2016-12-14T01:25:24.137Z,0
2016-12-14T01:26:34.879Z,0
2016-12-14T01:27:45.621Z,0
2016-12-14T01:28:56.624Z,0
2016-12-14T01:30:07.650Z,0
2016-12-14T01:31:18.363Z,0
2016-12-14T01:32:29.088Z,0
2016-12-14T01:33:39.827Z,0
2016-12-14T01:34:50.557Z,0
2016-12-14T01:36:01.305Z,0
2016-12-14T01:37:12.347Z,0
2016-12-14T01:38:23.111Z,0
2016-12-14T01:39:33.852Z,0
2016-12-14T01:40:44.580Z,0
2016-12-14T01:41:55.326Z,0
2016-12-14T01:43:06.053Z,0
2016-12-14T01:44:16.798Z,0
2016-12-14T01:45:27.544Z,0
2016-12-14T01:46:38.286Z,0
2016-12-14T01:47:49.010Z,0
2016-12-14T01:48:59.747Z,0
2016-12-14T01:50:10.525Z,0
2016-12-14T01:51:21.248Z,0
2016-12-14T01:52:32.012Z,0
2016-12-14T01:53:42.754Z,0
2016-12-14T01:54:53.488Z,0
2016-12-14T01:56:04.250Z,0
2016-12-14T01:57:14.979Z,0
2016-12-14T01:58:25.695Z,0
2016-12-14T01:59:36.441Z,0
2016-12-14T02:00:47.209Z,0
2016-12-14T02:01:57.939Z,0
2016-12-14T02:03:08.709Z,0
2016-12-14T02:04:19.425Z,0
2016-12-14T02:05:30.164Z,0
2016-12-14T02:06:40.892Z,0
2016-12-14T02:07:51.638Z,0
2016-12-14T02:09:02.352Z,0
2016-12-14T02:10:13.080Z,0
2016-12-14T02:11:23.808Z,0
2016-12-14T02:12:34.590Z,0
2016-12-14T02:13:45.293Z,0
2016-12-14T02:14:56.018Z,0
2016-12-14T02:16:06.752Z,0
2016-12-14T02:17:17.502Z,0
2016-12-14T02:18:28.556Z,0
2016-12-14T02:19:39.298Z,0
2016-12-14T02:20:50.061Z,0
2016-12-14T02:22:00.791Z,0
2016-12-14T02:23:11.519Z,0
2016-12-14T02:24:22.258Z,0
2016-12-14T02:25:32.957Z,0
2016-12-14T02:26:43.673Z,0
2016-12-14T02:27:54.394Z,0
2016-12-14T02:29:05.117Z,0
2016-12-14T02:30:15.867Z,0
2016-12-14T02:31:26.607Z,0
2016-12-14T02:32:37.328Z,0
2016-12-14T02:33:48.042Z,0
2016-12-14T02:34:58.818Z,0
2016-12-14T02:36:09.545Z,0
2016-12-14T02:37:20.291Z,0
2016-12-14T02:38:31.026Z,0
2016-12-14T02:39:41.729Z,0
2016-12-14T02:40:52.476Z,0
2016-12-14T02:42:03.225Z,0
2016-12-14T02:43:13.974Z,0
2016-12-14T02:44:24.718Z,0
2016-12-14T02:45:35.471Z,0
2016-12-14T02:46:46.234Z,0
2016-12-14T02:47:56.956Z,0
2016-12-14T02:49:08.015Z,0
2016-12-14T02:50:18.736Z,0
2016-12-14T02:51:29.494Z,0
2016-12-14T02:52:40.236Z,0
2016-12-14T02:53:50.937Z,0
2016-12-14T02:55:01.677Z,0
2016-12-14T02:56:12.427Z,0
2016-12-14T02:57:23.162Z,0
2016-12-14T02:58:33.870Z,0
2016-12-14T02:59:44.616Z,0
2016-12-14T03:00:55.357Z,0
2016-12-14T03:02:06.096Z,0
2016-12-14T03:03:16.830Z,0
2016-12-14T03:04:27.571Z,0
2016-12-14T03:05:38.294Z,0
2016-12-14T03:06:49.012Z,0
2016-12-14T03:07:59.738Z,0
2016-12-14T03:09:10.521Z,0
2016-12-14T03:10:21.230Z,0
2016-12-14T03:11:31.974Z,0
2016-12-14T03:12:42.717Z,0
2016-12-14T03:13:53.459Z,0
2016-12-14T03:15:04.185Z,0
2016-12-14T03:16:14.934Z,0
2016-12-14T03:17:25.669Z,0
2016-12-14T03:18:36.397Z,0
2016-12-14T03:19:47.097Z,0
2016-12-14T03:20:57.840Z,0
2016-12-14T03:22:08.585Z,0
2016-12-14T03:23:19.353Z,0
2016-12-14T03:24:30.099Z,0
2016-12-14T03:25:40.833Z,0
2016-12-14T03:26:51.569Z,0
2016-12-14T03:28:02.620Z,0
2016-12-14T03:29:13.360Z,0
2016-12-14T03:30:24.111Z,0
2016-12-14T03:31:34.854Z,0
2016-12-14T03:32:45.573Z,0
2016-12-14T03:33:56.294Z,0
2016-12-14T03:35:07.044Z,0
2016-12-14T03:36:17.763Z,0
2016-12-14T03:37:28.487Z,0
2016-12-14T03:38:39.204Z,0
2016-12-14T03:39:49.935Z,0
2016-12-14T03:41:00.674Z,0
2016-12-14T03:42:11.421Z,0
2016-12-14T03:43:22.185Z,0
2016-12-14T03:44:32.912Z,0
2016-12-14T03:45:43.655Z,0
2016-12-14T03:46:54.422Z,0
2016-12-14T03:48:05.153Z,0
2016-12-14T03:49:15.893Z,0
2016-12-14T03:50:26.589Z,0
2016-12-14T03:51:37.306Z,0
2016-12-14T03:52:48.030Z,0
2016-12-14T03:53:58.780Z,0
2016-12-14T03:55:09.522Z,0
2016-12-14T03:56:20.268Z,0
2016-12-14T03:57:31.020Z,0
2016-12-14T03:58:42.064Z,0
2016-12-14T03:59:52.802Z,0
2016-12-14T04:01:03.558Z,0
2016-12-14T04:02:14.298Z,0
2016-12-14T04:03:25.027Z,0
2016-12-14T04:04:35.762Z,0
2016-12-14T04:05:46.488Z,0
2016-12-14T04:06:57.237Z,0
2016-12-14T04:08:07.987Z,0
2016-12-14T04:09:18.729Z,0
2016-12-14T04:10:29.470Z,0
2016-12-14T04:11:40.219Z,0
2016-12-14T04:12:50.938Z,0
2016-12-14T04:14:01.663Z,0
2016-12-14T04:15:12.409Z,0
2016-12-14T04:16:23.172Z,0
2016-12-14T04:17:34.200Z,0
2016-12-14T04:18:44.942Z,0
2016-12-14T04:19:55.693Z,0
2016-12-14T04:21:06.434Z,0
2016-12-14T04:22:17.161Z,0
2016-12-14T04:23:27.920Z,0
2016-12-14T04:24:38.650Z,0
2016-12-14T04:25:49.385Z,0
2016-12-14T04:27:00.145Z,0
2016-12-14T04:28:10.885Z,0
2016-12-14T04:29:21.629Z,0
2016-12-14T04:30:32.353Z,0
2016-12-14T04:31:43.074Z,0
2016-12-14T04:32:53.812Z,0
2016-12-14T04:34:04.537Z,0
2016-12-14T04:35:15.266Z,0
2016-12-14T04:36:26.037Z,0
2016-12-14T04:37:36.780Z,0
2016-12-14T04:38:47.856Z,0
2016-12-14T04:39:58.567Z,0
2016-12-14T04:41:09.297Z,0
2016-12-14T04:42:20.043Z,0
2016-12-14T04:43:30.789Z,0
2016-12-14T04:44:41.523Z,0
2016-12-14T04:45:52.250Z,0
2016-12-14T04:47:03.303Z,0
2016-12-14T04:48:14.047Z,0
2016-12-14T04:49:24.781Z,0
2016-12-14T04:50:35.540Z,0
2016-12-14T04:51:46.282Z,0
2016-12-14T04:52:57.023Z,0
2016-12-14T04:54:07.748Z,0
2016-12-14T04:55:18.503Z,0
2016-12-14T04:56:29.237Z,0
2016-12-14T04:57:39.965Z,0
2016-12-14T04:58:50.707Z,0
2016-12-14T05:00:01.457Z,0
2016-12-14T05:01:12.201Z,0
2016-12-14T05:02:22.937Z,0
2016-12-14T05:03:33.696Z,0
2016-12-14T05:04:44.437Z,0
2016-12-14T05:05:55.158Z,0
2016-12-14T05:07:05.901Z,0
2016-12-14T05:08:16.601Z,0
2016-12-14T05:09:27.321Z,0
2016-12-14T05:10:38.068Z,0
2016-12-14T05:11:48.788Z,0
2016-12-14T05:12:59.514Z,0
2016-12-14T05:14:10.259Z,0
2016-12-14T05:15:21.012Z,0
2016-12-14T05:16:31.751Z,0
2016-12-14T05:17:42.493Z,0
2016-12-14T05:18:53.216Z,0
2016-12-14T05:20:03.961Z,0
2016-12-14T05:21:14.686Z,0
2016-12-14T05:22:25.427Z,0
2016-12-14T05:23:36.148Z,0
2016-12-14T05:24:46.873Z,0
2016-12-14T05:25:57.637Z,0
2016-12-14T05:27:08.362Z,0
2016-12-14T05:28:19.067Z,0
2016-12-14T05:29:29.822Z,0
2016-12-14T05:30:40.546Z,0
2016-12-14T05:31:51.254Z,0
2016-12-14T05:33:01.991Z,0
2016-12-14T05:34:12.730Z,0
2016-12-14T05:35:23.456Z,0
2016-12-14T05:36:34.179Z,0
2016-12-14T05:37:44.925Z,0
2016-12-14T05:38:55.648Z,0
2016-12-14T05:40:06.667Z,0
2016-12-14T05:41:17.391Z,0
2016-12-14T05:42:28.110Z,0
2016-12-14T05:43:38.830Z,0
2016-12-14T05:44:49.551Z,0
2016-12-14T05:46:00.273Z,0
2016-12-14T05:47:10.998Z,0
2016-12-14T05:48:21.765Z,0
2016-12-14T05:49:32.510Z,0
2016-12-14T05:50:43.229Z,0
2016-12-14T05:51:53.953Z,0
2016-12-14T05:53:04.677Z,0
2016-12-14T05:54:15.441Z,0
2016-12-14T05:55:26.166Z,0
2016-12-14T05:56:36.934Z,0
2016-12-14T05:57:47.657Z,0
2016-12-14T05:58:58.409Z,0
2016-12-14T06:00:09.150Z,0
2016-12-14T06:01:19.896Z,0
2016-12-14T06:02:30.648Z,0
2016-12-14T06:03:41.697Z,0
2016-12-14T06:04:52.451Z,0
2016-12-14T06:06:03.230Z,0
2016-12-14T06:07:13.952Z,0
2016-12-14T06:08:24.701Z,0
2016-12-14T06:09:35.418Z,0
2016-12-14T06:10:46.116Z,0
2016-12-14T06:11:56.835Z,0
2016-12-14T06:13:07.573Z,0
2016-12-14T06:14:18.332Z,0
2016-12-14T06:15:29.078Z,0
2016-12-14T06:16:39.841Z,0
2016-12-14T06:17:50.595Z,0
2016-12-14T06:19:01.369Z,0
2016-12-14T06:20:12.099Z,0
2016-12-14T06:21:22.828Z,0
2016-12-14T06:22:33.574Z,0
2016-12-14T06:23:44.320Z,0
2016-12-14T06:24:55.046Z,0
2016-12-14T06:26:05.762Z,0
2016-12-14T06:27:16.525Z,0
2016-12-14T06:28:27.279Z,0
2016-12-14T06:29:38.048Z,0
2016-12-14T06:30:48.771Z,0
2016-12-14T06:31:59.514Z,0
2016-12-14T06:33:10.262Z,0
2016-12-14T06:34:21.309Z,4
2016-12-14T06:35:32.034Z,0
2016-12-14T06:36:42.768Z,4
2016-12-14T06:37:53.501Z,4
2016-12-14T06:39:04.243Z,0
2016-12-14T06:40:14.961Z,4
2016-12-14T06:41:25.707Z,4
2016-12-14T06:42:36.453Z,4
2016-12-14T06:43:47.182Z,8
2016-12-14T06:44:58.223Z,8
2016-12-14T06:46:08.945Z,12
2016-12-14T06:47:19.640Z,12
2016-12-14T06:48:30.386Z,12
2016-12-14T06:49:41.113Z,12
2016-12-14T06:50:51.859Z,20
2016-12-14T06:52:02.606Z,20
2016-12-14T06:53:13.349Z,28
2016-12-14T06:54:24.088Z,32
2016-12-14T06:55:34.837Z,48
2016-12-14T06:56:45.575Z,60
2016-12-14T06:57:56.305Z,48
2016-12-14T06:59:07.350Z,60
2016-12-14T07:00:18.071Z,64
2016-12-14T07:01:28.823Z,64
2016-12-14T07:02:39.567Z,84
2016-12-14T07:03:50.289Z,88
2016-12-14T07:05:01.830Z,84
2016-12-14T07:06:12.556Z,104
2016-12-14T07:07:23.276Z,156
2016-12-14T07:08:34.028Z,140
2016-12-14T07:09:44.747Z,120
2016-12-14T07:10:55.485Z,128
2016-12-14T07:12:06.208Z,156
2016-12-14T07:13:16.969Z,184
2016-12-14T07:14:27.729Z,184
2016-12-14T07:15:38.475Z,180
2016-12-14T07:16:49.194Z,192
2016-12-14T07:17:59.940Z,256
2016-12-14T07:19:10.682Z,280
2016-12-14T07:20:21.402Z,304
2016-12-14T07:21:32.106Z,340
2016-12-14T07:22:43.124Z,404
2016-12-14T07:23:53.866Z,528
2016-12-14T07:25:04.604Z,564
2016-12-14T07:26:15.355Z,600
2016-12-14T07:27:26.109Z,624
2016-12-14T07:28:37.155Z,688
2016-12-14T07:29:47.898Z,724
2016-12-14T07:30:58.621Z,696
2016-12-14T07:32:09.368Z,624
2016-12-14T07:33:20.109Z,572
2016-12-14T07:34:30.835Z,600
2016-12-14T07:35:41.580Z,684
2016-12-14T07:36:52.323Z,664
2016-12-14T07:38:03.047Z,660
2016-12-14T07:39:13.810Z,748
2016-12-14T07:40:24.542Z,688
2016-12-14T07:41:35.298Z,624
2016-12-14T07:42:46.032Z,612
2016-12-14T07:43:56.803Z,636
2016-12-14T07:45:07.562Z,688
2016-12-14T07:46:18.290Z,616
2016-12-14T07:47:29.015Z,544
2016-12-14T07:48:39.774Z,456
2016-12-14T07:49:50.503Z,544
2016-12-14T07:51:01.232Z,508
2016-12-14T07:52:11.974Z,516
2016-12-14T07:53:22.695Z,504
2016-12-14T07:54:33.438Z,472
2016-12-14T07:55:44.188Z,500
2016-12-14T07:56:55.252Z,592
2016-12-14T07:58:05.975Z,796
2016-12-14T07:59:16.749Z,1376
2016-12-14T08:00:27.496Z,1440
2016-12-14T08:01:38.255Z,1288
2016-12-14T08:02:49.002Z,1172
2016-12-14T08:03:59.764Z,1072
2016-12-14T08:05:10.507Z,928
2016-12-14T08:06:21.251Z,872
2016-12-14T08:07:31.968Z,816
2016-12-14T08:08:42.719Z,716
2016-12-14T08:09:53.437Z,728
2016-12-14T08:11:04.136Z,832
2016-12-14T08:12:14.923Z,1020
2016-12-14T08:13:25.651Z,928
2016-12-14T08:14:36.365Z,692
2016-12-14T08:15:47.114Z,660
2016-12-14T08:16:57.841Z,748
2016-12-14T08:18:08.574Z,896
2016-12-14T08:19:19.595Z,944
2016-12-14T08:20:30.323Z,900
2016-12-14T08:21:41.073Z,892
2016-12-14T08:22:51.861Z,1096
2016-12-14T08:24:02.587Z,1008
2016-12-14T08:25:13.332Z,920
2016-12-14T08:26:24.077Z,828
2016-12-14T08:27:34.824Z,1036
2016-12-14T08:28:45.545Z,1200
2016-12-14T08:29:56.283Z,1140
2016-12-14T08:31:07.012Z,1256
2016-12-14T08:32:17.738Z,1204
2016-12-14T08:33:28.479Z,1224
2016-12-14T08:34:39.218Z,1172
2016-12-14T08:35:49.951Z,1308
2016-12-14T08:37:00.672Z,1232
2016-12-14T08:38:11.388Z,1332
2016-12-14T08:39:22.142Z,1440
2016-12-14T08:40:32.887Z,1432
2016-12-14T08:41:43.631Z,1288
2016-12-14T08:42:54.379Z,1184
2016-12-14T08:44:05.122Z,1132
2016-12-14T08:45:15.864Z,1160
2016-12-14T08:46:26.589Z,1112
2016-12-14T08:47:37.360Z,1108
2016-12-14T08:48:48.094Z,1148
2016-12-14T08:49:58.828Z,1244
2016-12-14T08:51:09.602Z,1372
2016-12-14T08:52:20.341Z,1356
2016-12-14T08:53:31.058Z,1236
2016-12-14T08:54:41.799Z,1328
2016-12-14T08:55:52.545Z,1388
2016-12-14T08:57:03.291Z,1364
2016-12-14T08:58:14.024Z,1332
2016-12-14T08:59:25.066Z,1332
2016-12-14T09:00:35.811Z,1344
2016-12-14T09:01:46.558Z,1312
2016-12-14T09:02:57.278Z,1324
2016-12-14T09:04:08.029Z,1340
2016-12-14T09:05:18.788Z,1292
2016-12-14T09:06:29.517Z,1296
2016-12-14T09:07:40.218Z,1272
2016-12-14T09:08:50.964Z,1252
2016-12-14T09:10:01.708Z,1312
2016-12-14T09:11:12.430Z,1452
2016-12-14T09:12:23.172Z,1536
2016-12-14T09:13:33.901Z,1460
2016-12-14T09:14:44.643Z,1488
2016-12-14T09:15:55.390Z,1512
2016-12-14T09:17:06.123Z,1668
2016-12-14T09:18:16.826Z,1644
2016-12-14T09:19:27.553Z,1480
2016-12-14T09:20:38.291Z,1492
2016-12-14T09:21:49.018Z,1488
2016-12-14T09:22:59.778Z,1508
2016-12-14T09:24:10.532Z,1712
2016-12-14T09:25:21.277Z,1856
2016-12-14T09:26:32.003Z,2760
2016-12-14T09:27:42.750Z,4172
2016-12-14T09:28:53.495Z,4512
2016-12-14T09:30:04.243Z,3356
2016-12-14T09:31:14.958Z,3056
2016-12-14T09:32:25.654Z,3544
2016-12-14T09:33:36.382Z,4140
2016-12-14T09:34:47.139Z,4076
2016-12-14T09:35:57.892Z,4084
2016-12-14T09:37:08.616Z,4376
2016-12-14T09:38:19.376Z,4848
2016-12-14T09:39:30.108Z,4880
2016-12-14T09:40:40.882Z,4048
2016-12-14T09:41:51.621Z,3568
2016-12-14T09:43:02.370Z,4012
2016-12-14T09:44:13.111Z,4924
2016-12-14T09:45:23.834Z,5772
2016-12-14T09:46:34.577Z,6368
2016-12-14T09:47:45.303Z,6080
2016-12-14T09:48:56.027Z,6216
2016-12-14T09:50:06.799Z,6584
2016-12-14T09:51:17.559Z,6336
2016-12-14T09:52:28.290Z,7844
2016-12-14T09:53:39.049Z,6688
2016-12-14T09:54:49.777Z,6060
2016-12-14T09:56:00.503Z,5848
2016-12-14T09:57:11.243Z,5468
2016-12-14T09:58:21.969Z,4828
2016-12-14T09:59:32.714Z,4600
2016-12-14T10:00:43.474Z,3992
2016-12-14T10:01:54.228Z,3396
2016-12-14T10:03:05.003Z,3676
2016-12-14T10:04:15.737Z,3928
2016-12-14T10:05:26.471Z,3676
2016-12-14T10:06:37.266Z,3584
2016-12-14T10:07:48.007Z,3484
2016-12-14T10:08:58.730Z,3520
2016-12-14T10:10:09.454Z,3672
2016-12-14T10:11:20.496Z,3340
2016-12-14T10:12:31.217Z,3696
2016-12-14T10:13:41.943Z,4444
2016-12-14T10:14:52.687Z,5396
2016-12-14T10:16:03.434Z,5896
2016-12-14T10:17:14.206Z,5392
2016-12-14T10:18:24.952Z,4096
2016-12-14T10:19:35.697Z,3844
2016-12-14T10:20:46.413Z,4480
2016-12-14T10:21:57.109Z,5144
2016-12-14T10:23:07.847Z,5420
2016-12-14T10:24:18.598Z,4348
2016-12-14T10:25:29.322Z,4684
2016-12-14T10:26:40.048Z,4392
2016-12-14T10:27:50.765Z,5364
2016-12-14T10:29:01.488Z,6052
2016-12-14T10:30:12.211Z,4928
2016-12-14T10:31:22.970Z,6044
2016-12-14T10:32:33.699Z,6108
2016-12-14T10:33:44.426Z,6316
2016-12-14T10:34:55.175Z,6200
2016-12-14T10:36:05.912Z,5728
2016-12-14T10:37:16.639Z,5028
2016-12-14T10:38:27.354Z,3960
2016-12-14T10:39:38.378Z,3932
2016-12-14T10:40:49.096Z,3216
2016-12-14T10:41:59.823Z,3068
2016-12-14T10:43:10.585Z,3540
2016-12-14T10:44:21.289Z,4064
2016-12-14T10:45:32.030Z,4004
2016-12-14T10:46:42.776Z,3552
2016-12-14T10:47:53.509Z,3460
2016-12-14T10:49:04.564Z,3788
2016-12-14T10:50:15.293Z,4228
2016-12-14T10:51:26.039Z,4408
2016-12-14T10:52:36.785Z,3564
2016-12-14T10:53:47.528Z,3684
2016-12-14T10:54:58.248Z,3804
2016-12-14T10:56:08.962Z,3928
2016-12-14T10:57:19.720Z,3588
2016-12-14T10:58:30.467Z,3504
2016-12-14T10:59:41.207Z,3620
2016-12-14T11:00:51.935Z,3776
2016-12-14T11:02:02.678Z,3356
2016-12-14T11:03:13.417Z,2820
2016-12-14T11:04:24.141Z,2592
2016-12-14T11:05:34.866Z,3028
2016-12-14T11:06:45.608Z,3728
2016-12-14T11:07:56.358Z,4000
2016-12-14T11:09:07.076Z,3848
2016-12-14T11:10:17.808Z,3628
2016-12-14T11:11:28.535Z,3732
2016-12-14T11:12:39.284Z,4020
2016-12-14T11:13:50.034Z,3816
2016-12-14T11:15:00.798Z,3372
2016-12-14T11:16:11.548Z,3292
2016-12-14T11:17:22.319Z,3336
2016-12-14T11:18:33.061Z,3524
2016-12-14T11:19:43.811Z,3532
2016-12-14T11:20:54.561Z,3324
2016-12-14T11:22:05.299Z,3372
2016-12-14T11:23:16.050Z,3912
2016-12-14T11:24:26.817Z,3808
2016-12-14T11:25:37.552Z,3248
2016-12-14T11:26:48.286Z,2856
2016-12-14T11:27:59.023Z,2556
2016-12-14T11:29:09.762Z,2640
2016-12-14T11:30:20.500Z,2716
2016-12-14T11:31:31.217Z,2908
2016-12-14T11:32:41.993Z,3280
2016-12-14T11:33:53.085Z,3288
2016-12-14T11:35:03.814Z,3564
2016-12-14T11:36:14.581Z,3848
2016-12-14T11:37:25.334Z,3880
2016-12-14T11:38:36.098Z,3480
2016-12-14T11:39:46.847Z,3416
2016-12-14T11:40:57.598Z,3392
2016-12-14T11:42:08.361Z,3484
2016-12-14T11:43:19.090Z,4112
2016-12-14T11:44:29.838Z,4288
2016-12-14T11:45:40.595Z,4200
2016-12-14T11:46:51.345Z,4196
2016-12-14T11:48:02.112Z,4464
2016-12-14T11:49:12.847Z,4724
2016-12-14T11:50:23.586Z,4652
2016-12-14T11:51:34.338Z,3984
2016-12-14T11:52:45.083Z,3892
2016-12-14T11:53:55.805Z,3800
2016-12-14T11:55:06.588Z,3868
2016-12-14T11:56:17.320Z,4100
2016-12-14T11:57:28.037Z,3468
2016-12-14T11:58:39.084Z,3276
2016-12-14T11:59:49.811Z,2944
2016-12-14T12:01:00.557Z,2452
2016-12-14T12:02:11.272Z,2104
2016-12-14T12:03:21.985Z,2296
2016-12-14T12:04:32.689Z,2572
2016-12-14T12:05:43.710Z,2760
2016-12-14T12:06:54.407Z,2420
2016-12-14T12:08:05.105Z,2036
2016-12-14T12:09:15.824Z,2032
2016-12-14T12:10:26.536Z,2016
2016-12-14T12:11:37.243Z,1960
2016-12-14T12:12:47.936Z,1912
2016-12-14T12:13:58.632Z,1860
2016-12-14T12:15:09.328Z,1840
2016-12-14T12:16:20.024Z,1880
2016-12-14T12:17:30.720Z,1896
2016-12-14T12:18:41.416Z,1788
2016-12-14T12:19:52.137Z,1748
2016-12-14T12:21:02.835Z,1860
2016-12-14T12:22:13.554Z,1932
2016-12-14T12:23:24.250Z,1984
2016-12-14T12:24:34.946Z,2072
2016-12-14T12:25:45.642Z,2280
2016-12-14T12:26:56.340Z,2484
2016-12-14T12:28:07.051Z,2528
2016-12-14T12:29:17.757Z,2504
2016-12-14T12:30:28.476Z,2448
2016-12-14T12:31:39.174Z,2540
2016-12-14T12:32:49.872Z,2408
2016-12-14T12:34:00.591Z,2272
2016-12-14T12:35:11.285Z,2244
2016-12-14T12:36:22.002Z,2404
2016-12-14T12:37:32.732Z,2408
2016-12-14T12:38:43.527Z,2196
2016-12-14T12:39:54.273Z,2184
2016-12-14T12:41:05.034Z,2432
2016-12-14T12:42:15.764Z,2700
2016-12-14T12:43:26.488Z,2572
2016-12-14T12:44:37.232Z,2536
2016-12-14T12:45:47.951Z,2252
2016-12-14T12:46:58.698Z,2120
2016-12-14T12:48:09.418Z,2260
2016-12-14T12:49:20.162Z,2312
2016-12-14T12:50:30.883Z,2068
2016-12-14T12:51:41.612Z,2072
2016-12-14T12:52:52.350Z,2344
2016-12-14T12:54:03.046Z,2460
2016-12-14T12:55:13.770Z,2480
2016-12-14T12:56:24.516Z,2344
2016-12-14T12:57:35.263Z,2148
2016-12-14T12:58:45.984Z,2192
2016-12-14T12:59:56.705Z,2384
2016-12-14T13:01:07.440Z,2396
2016-12-14T13:02:18.146Z,2308
2016-12-14T13:03:28.889Z,2344
2016-12-14T13:04:39.613Z,2564
2016-12-14T13:05:50.333Z,3036
2016-12-14T13:07:01.081Z,3264
2016-12-14T13:08:11.829Z,3332
2016-12-14T13:09:22.544Z,3240
2016-12-14T13:10:33.269Z,2824
2016-12-14T13:11:44.015Z,2772
2016-12-14T13:12:54.757Z,2684
2016-12-14T13:14:05.759Z,2480
2016-12-14T13:15:16.502Z,2404
2016-12-14T13:16:27.226Z,2212
2016-12-14T13:17:37.943Z,2036
2016-12-14T13:18:48.690Z,2000
2016-12-14T13:19:59.413Z,1984
2016-12-14T13:21:10.151Z,2032
2016-12-14T13:22:20.849Z,2012
2016-12-14T13:23:31.591Z,1968
2016-12-14T13:24:42.295Z,1864
2016-12-14T13:25:53.041Z,1792
2016-12-14T13:27:03.786Z,1760
2016-12-14T13:28:14.535Z,1772
2016-12-14T13:29:25.274Z,1836
2016-12-14T13:30:36.000Z,1840
2016-12-14T13:31:46.745Z,1764
2016-12-14T13:32:57.493Z,1664
2016-12-14T13:34:08.238Z,1648
2016-12-14T13:35:18.980Z,1656
2016-12-14T13:36:29.704Z,1588
2016-12-14T13:37:40.449Z,1556
2016-12-14T13:38:51.192Z,1632
2016-12-14T13:40:01.917Z,1632
2016-12-14T13:41:12.663Z,1472
2016-12-14T13:42:23.406Z,1432
2016-12-14T13:43:34.154Z,1456
2016-12-14T13:44:44.893Z,1476
2016-12-14T13:45:55.624Z,1476
2016-12-14T13:47:06.339Z,1528
2016-12-14T13:48:17.060Z,1492
2016-12-14T13:49:27.783Z,1460
2016-12-14T13:50:38.531Z,1460
2016-12-14T13:51:49.265Z,1496
2016-12-14T13:53:00.015Z,1500
2016-12-14T13:54:10.741Z,1496
2016-12-14T13:55:21.489Z,1448
2016-12-14T13:56:32.235Z,1392
2016-12-14T13:57:42.973Z,1276
2016-12-14T13:58:53.698Z,1252
2016-12-14T14:00:04.419Z,1240
2016-12-14T14:01:15.145Z,1168
2016-12-14T14:02:26.196Z,1168
2016-12-14T14:03:36.925Z,1180
2016-12-14T14:04:47.631Z,1236
2016-12-14T14:05:58.392Z,1184
2016-12-14T14:07:09.116Z,1160
2016-12-14T14:08:19.887Z,1172
2016-12-14T14:09:30.615Z,1156
2016-12-14T14:10:41.366Z,1116
2016-12-14T14:11:52.100Z,1076
2016-12-14T14:13:02.831Z,1068
2016-12-14T14:14:13.550Z,1000
2016-12-14T14:15:24.292Z,956
2016-12-14T14:16:35.013Z,936
2016-12-14T14:17:45.712Z,916
2016-12-14T14:18:56.450Z,888
2016-12-14T14:20:07.162Z,828
2016-12-14T14:21:17.897Z,744
2016-12-14T14:22:28.648Z,676
2016-12-14T14:23:39.389Z,584
2016-12-14T14:24:50.135Z,544
2016-12-14T14:26:00.848Z,524
2016-12-14T14:27:11.585Z,512
2016-12-14T14:28:22.301Z,496
2016-12-14T14:29:33.036Z,492
2016-12-14T14:30:43.769Z,500
2016-12-14T14:31:54.486Z,520
2016-12-14T14:33:05.207Z,476
2016-12-14T14:34:15.932Z,440
2016-12-14T14:35:26.651Z,432
2016-12-14T14:36:37.687Z,432
2016-12-14T14:37:48.394Z,428
2016-12-14T14:38:59.116Z,408
2016-12-14T14:40:09.858Z,384
2016-12-14T14:41:20.581Z,380
2016-12-14T14:42:31.274Z,364
2016-12-14T14:43:41.976Z,336
2016-12-14T14:44:52.992Z,308
2016-12-14T14:46:03.717Z,292
2016-12-14T14:47:14.480Z,284
2016-12-14T14:48:25.235Z,256
2016-12-14T14:49:35.969Z,236
2016-12-14T14:50:46.721Z,228
2016-12-14T14:51:57.472Z,208
2016-12-14T14:53:08.191Z,184
2016-12-14T14:54:18.934Z,160
2016-12-14T14:55:29.657Z,144
2016-12-14T14:56:40.402Z,132
2016-12-14T14:57:51.428Z,120
2016-12-14T14:59:02.177Z,112
2016-12-14T15:00:12.943Z,96
2016-12-14T15:01:23.702Z,88
2016-12-14T15:02:34.431Z,76
2016-12-14T15:03:45.152Z,68
2016-12-14T15:04:55.855Z,60
2016-12-14T15:06:06.594Z,60
2016-12-14T15:07:17.298Z,56
2016-12-14T15:08:28.011Z,48
2016-12-14T15:09:38.716Z,40
2016-12-14T15:10:49.461Z,36
2016-12-14T15:12:00.215Z,32
2016-12-14T15:13:10.946Z,28
2016-12-14T15:14:21.665Z,24
2016-12-14T15:15:32.415Z,20
2016-12-14T15:16:43.133Z,16
2016-12-14T15:17:53.851Z,16
2016-12-14T15:19:04.577Z,12
2016-12-14T15:20:15.319Z,8
2016-12-14T15:21:26.044Z,8
2016-12-14T15:22:36.762Z,8
2016-12-14T15:23:47.483Z,4
2016-12-14T15:24:58.200Z,4
2016-12-14T15:26:08.926Z,4
2016-12-14T15:27:19.642Z,8
2016-12-14T15:28:30.368Z,4
2016-12-14T15:29:41.111Z,4
2016-12-14T15:30:51.859Z,0
2016-12-14T15:32:02.599Z,0
2016-12-14T15:33:13.302Z,4
2016-12-14T15:34:24.022Z,4
2016-12-14T15:35:34.739Z,0
2016-12-14T15:36:45.457Z,0
2016-12-14T15:37:56.181Z,0
2016-12-14T15:39:06.899Z,0
2016-12-14T15:40:17.619Z,0
2016-12-14T15:41:28.340Z,0
2016-12-14T15:42:39.078Z,0
2016-12-14T15:43:49.829Z,0
2016-12-14T15:45:00.561Z,0
2016-12-14T15:46:11.304Z,0
2016-12-14T15:47:22.020Z,0
2016-12-14T15:48:32.767Z,0
2016-12-14T15:49:43.491Z,0
2016-12-14T15:50:54.236Z,0
2016-12-14T15:52:04.984Z,0
2016-12-14T15:53:15.726Z,0
2016-12-14T15:54:26.451Z,0
2016-12-14T15:55:37.218Z,0
2016-12-14T15:56:47.940Z,0
2016-12-14T15:57:58.660Z,0
2016-12-14T15:59:09.685Z,0
2016-12-14T16:00:20.462Z,0
2016-12-14T16:01:31.207Z,0
2016-12-14T16:02:41.922Z,0
2016-12-14T16:03:52.693Z,0
2016-12-14T16:05:03.465Z,0
2016-12-14T16:06:14.211Z,0
2016-12-14T16:07:24.956Z,0
2016-12-14T16:08:35.692Z,0
2016-12-14T16:09:46.404Z,0
2016-12-14T16:10:57.145Z,0
2016-12-14T16:12:07.866Z,0
2016-12-14T16:13:18.587Z,0
2016-12-14T16:14:29.288Z,0
2016-12-14T16:15:40.020Z,0
2016-12-14T16:16:50.741Z,0
2016-12-14T16:18:01.768Z,0
2016-12-14T16:19:12.489Z,0
2016-12-14T16:20:23.210Z,0
2016-12-14T16:21:33.958Z,0
2016-12-14T16:22:44.677Z,0
2016-12-14T16:23:55.399Z,0
2016-12-14T16:25:06.120Z,0
2016-12-14T16:26:16.874Z,0
2016-12-14T16:27:27.590Z,0
2016-12-14T16:28:38.334Z,0
2016-12-14T16:29:49.098Z,0
2016-12-14T16:30:59.830Z,0
2016-12-14T16:32:10.550Z,0
2016-12-14T16:33:21.297Z,0
2016-12-14T16:34:32.019Z,0
2016-12-14T16:35:42.736Z,0
2016-12-14T16:36:53.462Z,0